Bewolking Meer informatie Parkstad Weather Satellite


Neerslag Meer informatie Parkstad Rain Snow Radar


Onweersbuien Meer informatie Parkstad Lighntning


24/7 Weercamera Meer informatie Parkstad Weathercam


Natuurbrandrisico
CBI






Het weer levert geen direct gevaar op in Parkstad.    Er zijn geen waarschuwingen afgegeven voor Parkstad (045)

METAR rapporten vliegvelden

   
EHBK - Beek Nederland
Gewijzigd: 20-08-2018 15:55
Licht bewolkt  
Licht bewolkt  
   Wind: WZW 9.3 km/h
Wind: WZW 9.3 km/h
Temperatuur: 23°C
Dauwpunt: 17°C
Vochtigheid: 69%
Barometer: 1020 hPa
Satelliet beelden: Licht bewolkt
Zicht: meer dan 10 km
Bewolking: Licht bewolkt 671 m
EHBK 201355Z AUTO 24005KT 210V300 9999 FEW022 23/17 Q1020 NOSIG
EHBK - Maastricht Nederland
Gewijzigd: 20-08-2018 15:55
Licht bewolkt  
Licht bewolkt  
   Wind: WZW 9.3 km/h
Wind: WZW 9.3 km/h
Temperatuur: 23°C
Dauwpunt: 17°C
Vochtigheid: 69%
Barometer: 1020 hPa
Satelliet beelden: Licht bewolkt
Zicht: meer dan 10 km
Bewolking: Licht bewolkt 671 m
EHBK 201355Z AUTO 24005KT 210V300 9999 FEW022 23/17 Q1020 NOSIG
EBLG - Liège België
Gewijzigd: 20-08-2018 15:50
Licht bewolkt  
Licht bewolkt  
   Wind: varieert 3.7 km/h
Wind: varieert 3.7 km/h
Temperatuur: 22°C
Dauwpunt: 17°C
Vochtigheid: 73%
Barometer: 1021 hPa
Satelliet beelden: Licht bewolkt
Zicht: meer dan 10 km
Bewolking: Licht bewolkt 610 m
EBLG 201350Z VRB02KT 9999 FEW020 22/17 Q1021 NOSIG
EDDK - Köln/Bonn Duitsland
Gewijzigd: 20-08-2018 15:50
Grotendeels bewolkt  
Grotendeels bewolkt  
   Wind: NW 9.3 km/h
Wind: NW 9.3 km/h
Temperatuur: 23°C
Dauwpunt: 17°C
Vochtigheid: 69%
Barometer: 1020 hPa
Satelliet beelden: Grotendeels bewolkt
Zicht: meer dan 10 km
Bewolking: Licht bewolkt 488 m,
Grotendeels bewolkt 1494 m
EDDK 201350Z 31005KT 270V010 9999 FEW016 BKN049 23/17 Q1020 NOSIG
EDDL - Düsseldorf Duitsland
Gewijzigd: 20-08-2018 15:50
Wat regen mogelijk, Grotendeels bewolkt  
Wat regen mogelijk, Grotendeels bewolkt  
   Wind: WNW 5.6 km/h
Wind: WNW 5.6 km/h
Temperatuur: 22°C
Dauwpunt: 17°C
Vochtigheid: 73%
Barometer: 1020 hPa
Satelliet beelden: Grotendeels bewolkt
Zicht: meer dan 10 km
Bewolking: Licht bewolkt 488 m,
Gedeeltelijk bewolkt 671 m,
Grotendeels bewolkt 1402 m
EDDL 201350Z 29003KT 260V340 9999 -RA FEW016 SCT022 BKN046 22/17 Q1020 NOSIG
EHEH - Eindhoven Nederland
Gewijzigd: 20-08-2018 15:55
Bewolking  
Bewolking  
   Wind: NW 9.3 km/h
Wind: NW 9.3 km/h
Temperatuur: 22°C
Dauwpunt: 17°C
Vochtigheid: 73%
Barometer: 1020 hPa
Satelliet beelden: Bewolking
Zicht: meer dan 10 km
Bewolking: Gedeeltelijk bewolkt 1341 m,
Bewolking 1463 m
EHEH 201355Z AUTO 31005KT 270V010 9999 SCT044 OVC048 22/17 Q1020 BLU 32006KT 9999 SCT025 BKN050
ELLX - Luxemburg Luxemburg
Gewijzigd: 20-08-2018 15:50
Grotendeels bewolkt  
Grotendeels bewolkt  
   Wind: NW 11.1 km/h
Wind: NW 11.1 km/h
Temperatuur: 23°C
Dauwpunt: 16°C
Vochtigheid: 65%
Barometer: 1021 hPa
Satelliet beelden: Grotendeels bewolkt
Zicht: meer dan 10 km
Bewolking: Grotendeels bewolkt 1219 m
ELLX 201350Z 31006KT 280V340 9999 BKN040 23/16 Q1021 NOSIG
EGLL - London England
Gewijzigd: 20-08-2018 15:50
Licht bewolkt  
Licht bewolkt  
   Wind: ZW 13 km/h
Wind: ZW 13 km/h
Temperatuur: 25°C
Dauwpunt: 17°C
Vochtigheid: 61%
Barometer: 1020 hPa
Satelliet beelden: Licht bewolkt
Zicht: meer dan 10 km
Bewolking: Licht bewolkt 975 m
EGLL 201350Z AUTO 23007KT 190V260 9999 FEW032 25/17 Q1020 NOSIG
EBAW - Antwerpen België
Gewijzigd: 20-08-2018 15:50
Grotendeels bewolkt  
Grotendeels bewolkt  
   Wind: Noorden 7.4 km/h
Wind: Noorden 7.4 km/h
Temperatuur: 22°C
Dauwpunt: 17°C
Vochtigheid: 73%
Barometer: 1020 hPa
Satelliet beelden: Grotendeels bewolkt
Zicht: meer dan 10 km
Bewolking: Licht bewolkt 762 m,
Grotendeels bewolkt 1463 m
EBAW 201350Z 36004KT 330V040 9999 FEW025 BKN048 22/17 Q1020 NOSIG
EBOS - Oostende België
Gewijzigd: 20-08-2018 15:50
Grotendeels bewolkt  
Grotendeels bewolkt  
   Wind: WNW 9.3 km/h
Wind: WNW 9.3 km/h
Temperatuur: 21°C
Dauwpunt: 16°C
Vochtigheid: 73%
Barometer: 1021 hPa
Satelliet beelden: Grotendeels bewolkt
Zicht: meer dan 10 km
Bewolking: Licht bewolkt 610 m,
Grotendeels bewolkt 1463 m
EBOS 201350Z 30005KT 270V330 9999 FEW020 BKN048 21/16 Q1021 NOSIG
LEAL - La Nucia Spanje
Gewijzigd: 20-08-2018 16:00
Helder  
Helder  
   Wind: OZO 14.8 km/h
Wind: OZO 14.8 km/h
Temperatuur: 30°C
Gevoelstemperatuur: 29°C
Dauwpunt: 15°C
Vochtigheid: 40%
Barometer: 1018 hPa
Zicht: meer dan 10 km
Bewolking: Helder
LEAL 201400Z 11008KT 070V150 CAVOK 30/15 Q1018 NOSIG
TNCA - Oranjestad Aruba
Gewijzigd: 20-08-2018 16:00
Grotendeels bewolkt  
Grotendeels bewolkt  
   Wind: OZO 29.6 km/h
Wind: OZO 29.6 km/h
Temperatuur: 30°C
Gevoelstemperatuur: 35°C
Dauwpunt: 24°C
Vochtigheid: 70%
Barometer: 1014 hPa
Satelliet beelden: Grotendeels bewolkt
Zicht: meer dan 10 km
Bewolking: Grotendeels bewolkt 640 m
TNCA 201400Z 12016KT 9999 BKN021 30/24 Q1014 NOSIG
TNCC - Willemstad Curacao
Gewijzigd: 20-08-2018 16:00
Gedeeltelijk bewolkt  
Gedeeltelijk bewolkt  
   Wind: OZO 25.9 km/h
Wind: OZO 25.9 km/h
Temperatuur: 32°C
Gevoelstemperatuur: 38°C
Dauwpunt: 24°C
Vochtigheid: 63%
Barometer: 1015 hPa
Satelliet beelden: Gedeeltelijk bewolkt
Zicht: meer dan 10 km
Bewolking: Gedeeltelijk bewolkt
TNCC 201400Z AUTO 12014KT 9999 NSC 32/24 Q1015 NOSIG
MTPP - Port au Prince Haitië
Gewijzigd: 20-08-2018 16:00
Licht bewolkt  
Licht bewolkt  
   Wind: Oosten 31.5 km/h
Wind: Oosten 31.5 km/h
Temperatuur: 31°C
Gevoelstemperatuur: 34°C
Dauwpunt: 21°C
Vochtigheid: 55%
Barometer: 1015 hPa
Satelliet beelden: Licht bewolkt
Zicht: meer dan 10 km
Bewolking: Licht bewolkt 732 m
MTPP 201400Z 10017KT 9999 FEW024 31/21 Q1015 A29997
ENVA - Trondheim Noorwegen
Gewijzigd: 20-08-2018 15:50
Regenbuien, Neerslag, Grotendeels bewolkt  
Regenbuien, Neerslag, Grotendeels bewolkt  
   Wind: NW 16.7 km/h
Wind: NW 16.7 km/h
Temperatuur: 12°C
Dauwpunt: 10°C
Vochtigheid: 88%
Barometer: 1012 hPa
Satelliet beelden: Grotendeels bewolkt
Zicht: meer dan 10 km
Bewolking: Licht bewolkt 396 m,
Gedeeltelijk bewolkt 579 m,
Grotendeels bewolkt 762 m
ENVA 201350Z 31009KT 9999 SHRA FEW013 SCT019 BKN025 12/10 Q1012 TEMPO BKN015CB RMK WIND 670FT 30007KT
ENBO - Bodø Noorwegen
Gewijzigd: 20-08-2018 15:50
Nabijgelegen buien, Grotendeels bewolkt  
Nabijgelegen buien, Grotendeels bewolkt  
   Wind: ZW 24.1 km/h
Wind: ZW 24.1 km/h
Temperatuur: 11°C
Dauwpunt: 9°C
Vochtigheid: 88%
Barometer: 1007 hPa
Satelliet beelden: Grotendeels bewolkt
Zicht: meer dan 10 km
Bewolking: Licht bewolkt 244 m,
Gedeeltelijk bewolkt 518 m,
Grotendeels bewolkt 914 m
ENBO 201350Z 23013KT 9999 VCSH FEW008 SCT017TCU BKN030 11/09 Q1007 NOSIG
ETNG - Geilenkirchen Duitsland
Gewijzigd: 20-08-2018 15:50
Grotendeels bewolkt  
Grotendeels bewolkt  
   Wind: WNW 9.3 km/h
Wind: WNW 9.3 km/h
Temperatuur: 23°C
Dauwpunt: 17°C
Vochtigheid: 69%
Barometer: 1020 hPa
Satelliet beelden: Grotendeels bewolkt
Zicht: meer dan 10 km
Bewolking: Gedeeltelijk bewolkt 671 m,
Grotendeels bewolkt 1524 m
ETNG 201350Z 29005KT 9999 SCT022 BKN050 23/17 Q1020 NOSIG
 

Script ontwikkeld door  Saratoga-weather.org Aangepast voor de template door  Weerstation Leuven

U vindt ons ook hier:

Het Weer Aktueel

UK Metoffice

European Weather Network

WeatherCloud

Weather Underground

Benelux Weer Netwerk

AWEKAS

WeatherlinkIP

Citizen Weather Observer Program (CWOP)

HAMweather, WeatherForYou, PWS Weather

Apparatuur in gebruik:

Hardwareleverancier
Weerhuisje

Weerstation
Vantage Pro2+ +UV

Weercomputer's
alix3d2 & wl330n

Weerprogramma's
Smartbedded

Satelliet NOAA's
WRX137 & KX137

Satelliet Eumetsat
Ayecka SR1 & Triax

Bliksemdetectie
Boltek StormTracker

Webleverancier
F-Service

Weerhuisje

Vantage Pro2+ +UV

alix3d2 & wl330n

Smartbedded

WRX137 & KX137

Ayecka SR1 & Triax

Boltek StormTracker

F-Service